Illinois River (Oklahoma), Watts (07195500)

StateOklahomaLatestPoor (191 cfs)
RiverIllinois RiverRatingObservedEstimated
Updated2022-09-25 22:30 (49 minutes ago)Flood - The river is flooding. Obstacles can be treacherous or deadly. The river should be avoided at this stage for casual trips and definitely for the inexperienced. Trips should be attempted only with protective gear and equipment.Flood(none)2321
Discharge191 cfs (median: 185 cfs)High - The river is high and potentially dangerous, especially for the young and / or inexperienced. Normal stream obstacles are sometimes difficult to navigate. Extended distances can be attempted, but canoe travel may not be advisable.High(none)1162
Height2.57 feetGood - Conditions are ideal for a canoe or kayak. Boats typically will drag on fewer than one-quarter of riffles, if at all, and portages are unnecessary or rare. Normal float lengths can be attempted without a problem.Good(none)593
TrendFalling (falling over 24 hours)Low - River is low but can still be floated. Some riffles are okay but most come with significant dragging and might need a portage. Float lengths should be reduced to accommodate low flow, dragging, and portages.Low(none)384
USGSExternal icon USGS Site (External icon Duck Duck Go Maps)Poor - River is too low to float comfortably. Most or all riffles will drag or must be portaged and some obstacles (such as slick shelf rock) cause undue problems. Avoid the river at this stage for casual paddling trips.Poor(none)180

Trending Data

Plot Image

Trips for Illinois River (Oklahoma), Watts (07195500)

DateStartEndDistanceConditionDischargeHeightFishingDetails

A total of 0 rows are displayed.

Condition Descriptions

Fishing Conditions

Fish Species

Notes

Classic Trip List

The classic River Trips application is still available for use. It is updated with the new system using a data retrofit. It is no longer maintained. The original River Trips application is no longer updated (as of 1 Dec 2016) but can be checked for errors or for the condition of the data before it was converted to the new system.

Gauge Data Table

ObservationHeightDischargeMaximum
Discharge
Minimum
Discharge
Mean
Discharge
P05P10P20P25P50
(Median)
P75P80P90P95
2022-09-25 22:30 2.57 191 2620 (2019) 10 (1956) 334 58 80 117 130 185 361 403 694 1330
2022-09-25 21:30 2.59 196 2620 (2019) 10 (1956) 334 58 80 117 130 185 361 403 694 1330
2022-09-25 20:30 2.61 201 2620 (2019) 10 (1956) 334 58 80 117 130 185 361 403 694 1330
2022-09-25 19:30 2.62 204 2620 (2019) 10 (1956) 334 58 80 117 130 185 361 403 694 1330
2022-09-25 18:30 2.63 206 2620 (2019) 10 (1956) 334 58 80 117 130 185 361 403 694 1330
2022-09-25 17:30 2.63 206 2620 (2019) 10 (1956) 334 58 80 117 130 185 361 403 694 1330
2022-09-25 16:30 2.64 209 2620 (2019) 10 (1956) 334 58 80 117 130 185 361 403 694 1330
2022-09-25 15:30 2.64 209 2620 (2019) 10 (1956) 334 58 80 117 130 185 361 403 694 1330
2022-09-25 14:30 2.62 204 2620 (2019) 10 (1956) 334 58 80 117 130 185 361 403 694 1330
2022-09-25 13:30 2.60 199 2620 (2019) 10 (1956) 334 58 80 117 130 185 361 403 694 1330
2022-09-25 12:30 2.59 196 2620 (2019) 10 (1956) 334 58 80 117 130 185 361 403 694 1330
2022-09-25 11:30 2.59 196 2620 (2019) 10 (1956) 334 58 80 117 130 185 361 403 694 1330
2022-09-25 10:30 2.58 194 2620 (2019) 10 (1956) 334 58 80 117 130 185 361 403 694 1330
2022-09-25 09:30 2.58 194 2620 (2019) 10 (1956) 334 58 80 117 130 185 361 403 694 1330
2022-09-25 08:30 2.58 194 2620 (2019) 10 (1956) 334 58 80 117 130 185 361 403 694 1330
2022-09-25 07:30 2.61 201 2620 (2019) 10 (1956) 334 58 80 117 130 185 361 403 694 1330
2022-09-25 06:30 2.61 201 2620 (2019) 10 (1956) 334 58 80 117 130 185 361 403 694 1330
2022-09-25 05:30 2.62 204 2620 (2019) 10 (1956) 334 58 80 117 130 185 361 403 694 1330
2022-09-25 04:30 2.62 204 2620 (2019) 10 (1956) 334 58 80 117 130 185 361 403 694 1330
2022-09-25 03:30 2.62 204 2620 (2019) 10 (1956) 334 58 80 117 130 185 361 403 694 1330
2022-09-25 02:30 2.62 204 2620 (2019) 10 (1956) 334 58 80 117 130 185 361 403 694 1330
2022-09-25 01:30 2.62 204 2620 (2019) 10 (1956) 334 58 80 117 130 185 361 403 694 1330
2022-09-25 00:30 2.62 204 2620 (2019) 10 (1956) 334 58 80 117 130 185 361 403 694 1330
2022-09-24 23:30 2.63 206 3790 (2006) 10 (1956) 389 60 87 118 128 181 358 459 761 1800
2022-09-24 22:30 2.63 206 3790 (2006) 10 (1956) 389 60 87 118 128 181 358 459 761 1800
2022-09-24 21:30 2.63 206 3790 (2006) 10 (1956) 389 60 87 118 128 181 358 459 761 1800
2022-09-24 20:30 2.63 206 3790 (2006) 10 (1956) 389 60 87 118 128 181 358 459 761 1800
2022-09-24 19:30 2.64 209 3790 (2006) 10 (1956) 389 60 87 118 128 181 358 459 761 1800
2022-09-24 18:30 2.64 209 3790 (2006) 10 (1956) 389 60 87 118 128 181 358 459 761 1800
2022-09-24 17:30 2.63 206 3790 (2006) 10 (1956) 389 60 87 118 128 181 358 459 761 1800
2022-09-24 16:30 2.63 206 3790 (2006) 10 (1956) 389 60 87 118 128 181 358 459 761 1800
2022-09-24 15:30 2.62 204 3790 (2006) 10 (1956) 389 60 87 118 128 181 358 459 761 1800
2022-09-24 14:30 2.63 206 3790 (2006) 10 (1956) 389 60 87 118 128 181 358 459 761 1800
2022-09-24 13:30 2.63 206 3790 (2006) 10 (1956) 389 60 87 118 128 181 358 459 761 1800
2022-09-24 12:30 2.64 209 3790 (2006) 10 (1956) 389 60 87 118 128 181 358 459 761 1800
2022-09-24 11:30 2.70 225 3790 (2006) 10 (1956) 389 60 87 118 128 181 358 459 761 1800
2022-09-24 10:30 2.69 222 3790 (2006) 10 (1956) 389 60 87 118 128 181 358 459 761 1800
2022-09-24 09:30 2.63 206 3790 (2006) 10 (1956) 389 60 87 118 128 181 358 459 761 1800
2022-09-24 08:30 2.61 201 3790 (2006) 10 (1956) 389 60 87 118 128 181 358 459 761 1800
2022-09-24 07:30 2.60 199 3790 (2006) 10 (1956) 389 60 87 118 128 181 358 459 761 1800
2022-09-24 06:30 2.60 199 3790 (2006) 10 (1956) 389 60 87 118 128 181 358 459 761 1800
2022-09-24 05:30 2.60 199 3790 (2006) 10 (1956) 389 60 87 118 128 181 358 459 761 1800
2022-09-24 04:30 2.59 196 3790 (2006) 10 (1956) 389 60 87 118 128 181 358 459 761 1800
2022-09-24 03:30 2.59 196 3790 (2006) 10 (1956) 389 60 87 118 128 181 358 459 761 1800
2022-09-24 02:30 2.61 201 3790 (2006) 10 (1956) 389 60 87 118 128 181 358 459 761 1800
2022-09-24 01:30 2.63 206 3790 (2006) 10 (1956) 389 60 87 118 128 181 358 459 761 1800
2022-09-24 00:30 2.63 206 3790 (2006) 10 (1956) 389 60 87 118 128 181 358 459 761 1800
2022-09-23 23:30 2.64 209 3500 (2006) 10 (1956) 383 59 79 114 126 183 387 521 932 1590
2022-09-23 22:30 2.64 209 3500 (2006) 10 (1956) 383 59 79 114 126 183 387 521 932 1590
2022-09-23 21:30 2.65 211 3500 (2006) 10 (1956) 383 59 79 114 126 183 387 521 932 1590
2022-09-23 20:30 2.65 211 3500 (2006) 10 (1956) 383 59 79 114 126 183 387 521 932 1590
2022-09-23 19:30 2.63 206 3500 (2006) 10 (1956) 383 59 79 114 126 183 387 521 932 1590
2022-09-23 18:30 2.60 199 3500 (2006) 10 (1956) 383 59 79 114 126 183 387 521 932 1590
2022-09-23 17:30 2.64 209 3500 (2006) 10 (1956) 383 59 79 114 126 183 387 521 932 1590
2022-09-23 16:30 2.69 222 3500 (2006) 10 (1956) 383 59 79 114 126 183 387 521 932 1590
2022-09-23 15:30 2.61 201 3500 (2006) 10 (1956) 383 59 79 114 126 183 387 521 932 1590
2022-09-23 14:30 2.66 214 3500 (2006) 10 (1956) 383 59 79 114 126 183 387 521 932 1590
2022-09-23 13:30 2.66 214 3500 (2006) 10 (1956) 383 59 79 114 126 183 387 521 932 1590
2022-09-23 12:30 2.66 214 3500 (2006) 10 (1956) 383 59 79 114 126 183 387 521 932 1590
2022-09-23 11:30 2.64 209 3500 (2006) 10 (1956) 383 59 79 114 126 183 387 521 932 1590
2022-09-23 10:30 2.61 201 3500 (2006) 10 (1956) 383 59 79 114 126 183 387 521 932 1590
2022-09-23 09:30 2.60 199 3500 (2006) 10 (1956) 383 59 79 114 126 183 387 521 932 1590
2022-09-23 08:30 2.60 199 3500 (2006) 10 (1956) 383 59 79 114 126 183 387 521 932 1590
2022-09-23 07:30 2.59 196 3500 (2006) 10 (1956) 383 59 79 114 126 183 387 521 932 1590
2022-09-23 06:30 2.60 199 3500 (2006) 10 (1956) 383 59 79 114 126 183 387 521 932 1590
2022-09-23 05:30 2.63 206 3500 (2006) 10 (1956) 383 59 79 114 126 183 387 521 932 1590
2022-09-23 04:30 2.63 206 3500 (2006) 10 (1956) 383 59 79 114 126 183 387 521 932 1590
2022-09-23 03:30 2.64 209 3500 (2006) 10 (1956) 383 59 79 114 126 183 387 521 932 1590
2022-09-23 02:30 2.64 209 3500 (2006) 10 (1956) 383 59 79 114 126 183 387 521 932 1590
2022-09-23 01:30 2.64 209 3500 (2006) 10 (1956) 383 59 79 114 126 183 387 521 932 1590
2022-09-23 00:30 2.64 209 3500 (2006) 10 (1956) 383 59 79 114 126 183 387 521 932 1590
2022-09-22 23:30 2.65 211 2990 (2009) 12 (1956) 348 61 81 108 127 196 335 446 840 1450
2022-09-22 22:30 2.65 211 2990 (2009) 12 (1956) 348 61 81 108 127 196 335 446 840 1450
2022-09-22 21:30 2.65 211 2990 (2009) 12 (1956) 348 61 81 108 127 196 335 446 840 1450
2022-09-22 20:30 2.64 209 2990 (2009) 12 (1956) 348 61 81 108 127 196 335 446 840 1450
2022-09-22 19:30 2.64 209 2990 (2009) 12 (1956) 348 61 81 108 127 196 335 446 840 1450
2022-09-22 18:30 2.64 209 2990 (2009) 12 (1956) 348 61 81 108 127 196 335 446 840 1450
2022-09-22 17:30 2.64 209 2990 (2009) 12 (1956) 348 61 81 108 127 196 335 446 840 1450
2022-09-22 16:30 2.65 211 2990 (2009) 12 (1956) 348 61 81 108 127 196 335 446 840 1450
2022-09-22 15:30 2.65 211 2990 (2009) 12 (1956) 348 61 81 108 127 196 335 446 840 1450
2022-09-22 14:30 2.65 211 2990 (2009) 12 (1956) 348 61 81 108 127 196 335 446 840 1450
2022-09-22 13:30 2.65 211 2990 (2009) 12 (1956) 348 61 81 108 127 196 335 446 840 1450
2022-09-22 12:30 2.65 211 2990 (2009) 12 (1956) 348 61 81 108 127 196 335 446 840 1450
2022-09-22 11:30 2.66 214 2990 (2009) 12 (1956) 348 61 81 108 127 196 335 446 840 1450
2022-09-22 10:30 2.66 214 2990 (2009) 12 (1956) 348 61 81 108 127 196 335 446 840 1450
2022-09-22 09:30 2.63 206 2990 (2009) 12 (1956) 348 61 81 108 127 196 335 446 840 1450
2022-09-22 08:30 2.60 199 2990 (2009) 12 (1956) 348 61 81 108 127 196 335 446 840 1450
2022-09-22 07:30 2.59 196 2990 (2009) 12 (1956) 348 61 81 108 127 196 335 446 840 1450
2022-09-22 06:30 2.63 206 2990 (2009) 12 (1956) 348 61 81 108 127 196 335 446 840 1450
2022-09-22 05:30 2.66 214 2990 (2009) 12 (1956) 348 61 81 108 127 196 335 446 840 1450
2022-09-22 04:30 2.57 191 2990 (2009) 12 (1956) 348 61 81 108 127 196 335 446 840 1450
2022-09-22 03:30 2.61 201 2990 (2009) 12 (1956) 348 61 81 108 127 196 335 446 840 1450
2022-09-22 02:30 2.69 222 2990 (2009) 12 (1956) 348 61 81 108 127 196 335 446 840 1450
2022-09-22 01:30 2.55 186 2990 (2009) 12 (1956) 348 61 81 108 127 196 335 446 840 1450
2022-09-22 00:30 2.72 230 2990 (2009) 12 (1956) 348 61 81 108 127 196 335 446 840 1450
2022-09-21 23:30 2.53 182 3940 (1974) 20 (1956) 330 63 79 104 120 182 277 314 616 1660
2022-09-21 22:30 2.73 233 3940 (1974) 20 (1956) 330 63 79 104 120 182 277 314 616 1660
2022-09-21 21:30 2.53 182 3940 (1974) 20 (1956) 330 63 79 104 120 182 277 314 616 1660
2022-09-21 20:30 2.76 241 3940 (1974) 20 (1956) 330 63 79 104 120 182 277 314 616 1660
2022-09-21 19:30 2.52 179 3940 (1974) 20 (1956) 330 63 79 104 120 182 277 314 616 1660
2022-09-21 18:30 2.77 244 3940 (1974) 20 (1956) 330 63 79 104 120 182 277 314 616 1660
2022-09-21 17:30 2.53 182 3940 (1974) 20 (1956) 330 63 79 104 120 182 277 314 616 1660
2022-09-21 16:30 2.80 252 3940 (1974) 20 (1956) 330 63 79 104 120 182 277 314 616 1660
2022-09-21 15:30 2.48 170 3940 (1974) 20 (1956) 330 63 79 104 120 182 277 314 616 1660
2022-09-21 14:30 2.70 225 3940 (1974) 20 (1956) 330 63 79 104 120 182 277 314 616 1660
2022-09-21 13:30 2.67 217 3940 (1974) 20 (1956) 330 63 79 104 120 182 277 314 616 1660
2022-09-21 12:30 2.67 217 3940 (1974) 20 (1956) 330 63 79 104 120 182 277 314 616 1660
2022-09-21 11:30 2.67 217 3940 (1974) 20 (1956) 330 63 79 104 120 182 277 314 616 1660
2022-09-21 10:30 2.65 211 3940 (1974) 20 (1956) 330 63 79 104 120 182 277 314 616 1660
2022-09-21 09:30 2.60 199 3940 (1974) 20 (1956) 330 63 79 104 120 182 277 314 616 1660
2022-09-21 08:30 2.59 196 3940 (1974) 20 (1956) 330 63 79 104 120 182 277 314 616 1660
2022-09-21 07:30 2.64 209 3940 (1974) 20 (1956) 330 63 79 104 120 182 277 314 616 1660
2022-09-21 06:30 2.68 219 3940 (1974) 20 (1956) 330 63 79 104 120 182 277 314 616 1660
2022-09-21 05:30 2.69 222 3940 (1974) 20 (1956) 330 63 79 104 120 182 277 314 616 1660
2022-09-21 04:30 2.67 217 3940 (1974) 20 (1956) 330 63 79 104 120 182 277 314 616 1660
2022-09-21 03:30 2.63 206 3940 (1974) 20 (1956) 330 63 79 104 120 182 277 314 616 1660
2022-09-21 02:30 2.62 204 3940 (1974) 20 (1956) 330 63 79 104 120 182 277 314 616 1660
2022-09-21 01:30 2.63 206 3940 (1974) 20 (1956) 330 63 79 104 120 182 277 314 616 1660
2022-09-21 00:30 2.71 227 3940 (1974) 20 (1956) 330 63 79 104 120 182 277 314 616 1660
2022-09-20 23:30 2.71 227 7760 (1975) 12 (1956) 398 59 79 100 112 190 275 324 547 1060
2022-09-20 22:30 2.59 196 7760 (1975) 12 (1956) 398 59 79 100 112 190 275 324 547 1060
2022-09-20 21:30 2.64 209 7760 (1975) 12 (1956) 398 59 79 100 112 190 275 324 547 1060
2022-09-20 20:30 2.73 233 7760 (1975) 12 (1956) 398 59 79 100 112 190 275 324 547 1060
2022-09-20 19:30 2.73 233 7760 (1975) 12 (1956) 398 59 79 100 112 190 275 324 547 1060
2022-09-20 18:30 2.71 227 7760 (1975) 12 (1956) 398 59 79 100 112 190 275 324 547 1060
2022-09-20 17:30 2.68 219 7760 (1975) 12 (1956) 398 59 79 100 112 190 275 324 547 1060
2022-09-20 16:30 2.68 219 7760 (1975) 12 (1956) 398 59 79 100 112 190 275 324 547 1060
2022-09-20 15:30 2.67 217 7760 (1975) 12 (1956) 398 59 79 100 112 190 275 324 547 1060
2022-09-20 14:30 2.68 219 7760 (1975) 12 (1956) 398 59 79 100 112 190 275 324 547 1060
2022-09-20 13:30 2.67 217 7760 (1975) 12 (1956) 398 59 79 100 112 190 275 324 547 1060
2022-09-20 12:30 2.68 219 7760 (1975) 12 (1956) 398 59 79 100 112 190 275 324 547 1060
2022-09-20 11:30 2.68 219 7760 (1975) 12 (1956) 398 59 79 100 112 190 275 324 547 1060
2022-09-20 10:30 2.68 219 7760 (1975) 12 (1956) 398 59 79 100 112 190 275 324 547 1060
2022-09-20 09:30 2.65 211 7760 (1975) 12 (1956) 398 59 79 100 112 190 275 324 547 1060
2022-09-20 08:30 2.63 206 7760 (1975) 12 (1956) 398 59 79 100 112 190 275 324 547 1060
2022-09-20 07:30 2.63 206 7760 (1975) 12 (1956) 398 59 79 100 112 190 275 324 547 1060
2022-09-20 06:30 2.62 204 7760 (1975) 12 (1956) 398 59 79 100 112 190 275 324 547 1060
2022-09-20 05:30 2.62 204 7760 (1975) 12 (1956) 398 59 79 100 112 190 275 324 547 1060
2022-09-20 04:30 2.62 204 7760 (1975) 12 (1956) 398 59 79 100 112 190 275 324 547 1060
2022-09-20 03:30 2.63 206 7760 (1975) 12 (1956) 398 59 79 100 112 190 275 324 547 1060
2022-09-20 02:30 2.69 222 7760 (1975) 12 (1956) 398 59 79 100 112 190 275 324 547 1060
2022-09-20 01:30 2.67 217 7760 (1975) 12 (1956) 398 59 79 100 112 190 275 324 547 1060
2022-09-20 00:30 2.58 194 7760 (1975) 12 (1956) 398 59 79 100 112 190 275 324 547 1060
2022-09-19 23:30 2.66 214 7660 (1975) 10 (1956) 370 59 78 97 111 167 287 371 616 1090
2022-09-19 22:30 2.68 219 7660 (1975) 10 (1956) 370 59 78 97 111 167 287 371 616 1090
2022-09-19 21:30 2.62 204 7660 (1975) 10 (1956) 370 59 78 97 111 167 287 371 616 1090
2022-09-19 20:30 2.71 227 7660 (1975) 10 (1956) 370 59 78 97 111 167 287 371 616 1090
2022-09-19 19:30 2.60 199 7660 (1975) 10 (1956) 370 59 78 97 111 167 287 371 616 1090
2022-09-19 18:30 2.74 236 7660 (1975) 10 (1956) 370 59 78 97 111 167 287 371 616 1090
2022-09-19 17:30 2.55 186 7660 (1975) 10 (1956) 370 59 78 97 111 167 287 371 616 1090
2022-09-19 16:30 2.71 227 7660 (1975) 10 (1956) 370 59 78 97 111 167 287 371 616 1090
2022-09-19 15:30 2.70 225 7660 (1975) 10 (1956) 370 59 78 97 111 167 287 371 616 1090
2022-09-19 14:30 2.67 217 7660 (1975) 10 (1956) 370 59 78 97 111 167 287 371 616 1090
2022-09-19 13:30 2.66 214 7660 (1975) 10 (1956) 370 59 78 97 111 167 287 371 616 1090
2022-09-19 12:30 2.66 214 7660 (1975) 10 (1956) 370 59 78 97 111 167 287 371 616 1090
2022-09-19 11:30 2.66 214 7660 (1975) 10 (1956) 370 59 78 97 111 167 287 371 616 1090
2022-09-19 10:30 2.66 214 7660 (1975) 10 (1956) 370 59 78 97 111 167 287 371 616 1090
2022-09-19 09:30 2.66 214 7660 (1975) 10 (1956) 370 59 78 97 111 167 287 371 616 1090
2022-09-19 08:30 2.66 214 7660 (1975) 10 (1956) 370 59 78 97 111 167 287 371 616 1090
2022-09-19 07:30 2.66 214 7660 (1975) 10 (1956) 370 59 78 97 111 167 287 371 616 1090
2022-09-19 06:30 2.66 214 7660 (1975) 10 (1956) 370 59 78 97 111 167 287 371 616 1090
2022-09-19 05:30 2.67 217 7660 (1975) 10 (1956) 370 59 78 97 111 167 287 371 616 1090
2022-09-19 04:30 2.66 214 7660 (1975) 10 (1956) 370 59 78 97 111 167 287 371 616 1090
2022-09-19 03:30 2.67 217 7660 (1975) 10 (1956) 370 59 78 97 111 167 287 371 616 1090
2022-09-19 02:30 2.67 217 7660 (1975) 10 (1956) 370 59 78 97 111 167 287 371 616 1090
2022-09-19 01:30 2.67 217 7660 (1975) 10 (1956) 370 59 78 97 111 167 287 371 616 1090
2022-09-19 00:30 2.67 217 7660 (1975) 10 (1956) 370 59 78 97 111 167 287 371 616 1090
2022-09-18 23:30 2.67 217 2390 (2006) 12 (1956) 297 60 79 104 116 173 283 347 501 1420
2022-09-18 22:30 2.68 219 2390 (2006) 12 (1956) 297 60 79 104 116 173 283 347 501 1420
2022-09-18 21:30 2.68 219 2390 (2006) 12 (1956) 297 60 79 104 116 173 283 347 501 1420
2022-09-18 20:30 2.68 219 2390 (2006) 12 (1956) 297 60 79 104 116 173 283 347 501 1420
2022-09-18 19:30 2.69 222 2390 (2006) 12 (1956) 297 60 79 104 116 173 283 347 501 1420
2022-09-18 18:30 2.69 222 2390 (2006) 12 (1956) 297 60 79 104 116 173 283 347 501 1420
2022-09-18 17:30 2.69 222 2390 (2006) 12 (1956) 297 60 79 104 116 173 283 347 501 1420
2022-09-18 16:30 2.69 222 2390 (2006) 12 (1956) 297 60 79 104 116 173 283 347 501 1420
2022-09-18 15:30 2.70 225 2390 (2006) 12 (1956) 297 60 79 104 116 173 283 347 501 1420
2022-09-18 14:30 2.70 225 2390 (2006) 12 (1956) 297 60 79 104 116 173 283 347 501 1420
2022-09-18 13:30 2.70 225 2390 (2006) 12 (1956) 297 60 79 104 116 173 283 347 501 1420
2022-09-18 12:30 2.70 225 2390 (2006) 12 (1956) 297 60 79 104 116 173 283 347 501 1420
2022-09-18 11:30 2.69 222 2390 (2006) 12 (1956) 297 60 79 104 116 173 283 347 501 1420
2022-09-18 10:30 2.68 219 2390 (2006) 12 (1956) 297 60 79 104 116 173 283 347 501 1420
2022-09-18 09:30 2.68 219 2390 (2006) 12 (1956) 297 60 79 104 116 173 283 347 501 1420
2022-09-18 08:30 2.67 217 2390 (2006) 12 (1956) 297 60 79 104 116 173 283 347 501 1420
2022-09-18 07:30 2.67 217 2390 (2006) 12 (1956) 297 60 79 104 116 173 283 347 501 1420
2022-09-18 06:30 2.67 217 2390 (2006) 12 (1956) 297 60 79 104 116 173 283 347 501 1420
2022-09-18 05:30 2.68 219 2390 (2006) 12 (1956) 297 60 79 104 116 173 283 347 501 1420
2022-09-18 04:30 2.75 238 2390 (2006) 12 (1956) 297 60 79 104 116 173 283 347 501 1420
2022-09-18 03:30 2.73 233 2390 (2006) 12 (1956) 297 60 79 104 116 173 283 347 501 1420
2022-09-18 02:30 2.65 211 2390 (2006) 12 (1956) 297 60 79 104 116 173 283 347 501 1420
2022-09-18 01:30 2.74 236 2390 (2006) 12 (1956) 297 60 79 104 116 173 283 347 501 1420
2022-09-18 00:30 2.74 236 2390 (2006) 12 (1956) 297 60 79 104 116 173 283 347 501 1420

A total of 191 rows are displayed for years 1956 through 2020.